• Join FlightAware (Why Join?)
  • Login
  • US Flag 
09:53PM EDT


 

Airport Tracker/Info


-or-


 

Live Flight TrackerFlight Track Log ✈ CSN6816 ✈ 13-Jul-2014 ✈ ZWTN / HTN - ZWWW / URC

Flight Track Log - Related Links

Times and Time Zones

All times are in EDT time to prevent confusion due to time zone crossing. See the CSN6816 flight status page for this flight to view local times or setup timezone preferences in your user account.

Time Position Orientation Groundspeed Altitude Reporting Facility
EDT Latitude Longitude Course Direction KTS MPH feet Rate Location/Type
08:21AM 39.0927 81.9282 38° Northeast  Level Estimated
08:22AM 39.1896 82.0294 39° Northeast  Level Estimated
08:23AM 39.2864 82.1309 39° Northeast  Level Estimated
08:24AM 39.3831 82.2326 39° Northeast  Level Estimated
08:25AM 39.4797 82.3347 39° Northeast  Level Estimated
08:26AM 39.5763 82.4370 39° Northeast  Level Estimated
08:27AM 39.6727 82.5396 39° Northeast  Level Estimated
08:28AM 39.7691 82.6425 39° Northeast  Level Estimated
08:29AM 39.8653 82.7457 39° Northeast  Level Estimated
08:30AM 39.9615 82.8492 39° Northeast  Level Estimated
08:31AM 40.0576 82.9529 40° Northeast  Level Estimated
08:32AM 40.1536 83.0570 40° Northeast  Level Estimated
08:33AM 40.2495 83.1613 40° Northeast  Level Estimated
08:34AM 40.3453 83.2660 40° Northeast  Level Estimated
08:35AM 40.4410 83.3709 40° Northeast  Level Estimated
08:36AM 40.5366 83.4762 40° Northeast  Level Estimated
08:37AM 40.6321 83.5817 40° Northeast  Level Estimated
08:38AM 40.7276 83.6876 40° Northeast  Level Estimated
08:39AM 40.8229 83.7937 40° Northeast  Level Estimated
08:40AM 40.9181 83.9002 40° Northeast  Level Estimated
08:41AM 41.0133 84.0070 40° Northeast  Level Estimated
08:42AM 41.1083 84.1141 40° Northeast  Level Estimated
08:43AM 41.2032 84.2214 40° Northeast  Level Estimated
08:44AM 41.2981 84.3291 40° Northeast  Level Estimated
08:45AM 41.3928 84.4371 41° Northeast  Level Estimated
08:46AM 41.4874 84.5455 41° Northeast  Level Estimated
08:47AM 41.5820 84.6541 41° Northeast  Level Estimated
08:48AM 41.6764 84.7631 41° Northeast  Level Estimated
08:49AM 41.7707 84.8724 41° Northeast  Level Estimated
08:50AM 41.8649 84.9820 41° Northeast  Level Estimated
08:51AM 41.9590 85.0919 41° Northeast  Level Estimated
08:52AM 42.0530 85.2021 41° Northeast  Level Estimated
08:53AM 42.1469 85.3127 41° Northeast  Level Estimated
08:54AM 42.2407 85.4236 41° Northeast  Level Estimated
08:55AM 42.3344 85.5349 41° Northeast  Level Estimated
08:56AM 42.4280 85.6464 41° Northeast  Level Estimated
08:57AM 42.5215 85.7583 41° Northeast  Level Estimated
08:58AM 42.6148 85.8706 41° Northeast  Level Estimated
08:59AM 42.7081 85.9831 42° Northeast  Level Estimated
09:00AM 42.8013 86.0961 42° Northeast  Level Estimated
09:01AM 42.8943 86.2093 42° Northeast  Level Estimated
09:02AM 42.9872 86.3229 42° Northeast  Level Estimated
09:03AM 43.0800 86.4369 42° Northeast  Level Estimated
09:04AM 43.1727 86.5511 42° Northeast  Level Estimated
09:05AM 43.2653 86.6658 42° Northeast  Level Estimated
09:06AM 43.3577 86.7807 42° Northeast  Level Estimated
09:07AM 43.4501 86.8961 42° Northeast  Level Estimated
09:08AM 43.5423 87.0118 42° Northeast  Level Estimated
09:09AM 43.6344 87.1278 42° Northeast  Level Estimated
09:10AM 43.7265 87.2442 42° Northeast  Level Estimated
09:11AM 43.8183 87.3609 42° Northeast  Level Estimated
09:12AM 43.9071 87.4742 43° Northeast  Level Estimated
09:13AM 43.9071 87.4742 North  Level Estimated
09:14AM 43.9071 87.4742 North  Level Estimated
09:15AM 43.9071 87.4742 North  Level Estimated
09:16AM 43.9071 87.4742 North  Level Estimated
09:17AM 43.9071 87.4742 North  Level Estimated
09:18AM 43.9071 87.4742 North  Level Estimated
09:19AM 43.9071 87.4742 North  Level Estimated
09:20AM 43.9071 87.4742 North  Level Estimated
09:21AM 43.9071 87.4742 North  Level Estimated
09:22AM 43.9071 87.4742 North  Level Estimated
09:23AM 43.9071 87.4742 North  Level Estimated
09:24AM 43.9071 87.4742 North  Level Estimated
09:25AM 43.9071 87.4742 North  Level Estimated
09:26AM 43.9071 87.4742 North  Level Estimated
09:27AM 43.9071 87.4742 North  Level Estimated
09:28AM 43.9071 87.4742 North  Level Estimated